TimeEST,TemperatureF,Dew PointF,Humidity,Sea Level PressureIn,VisibilityMPH,Wind Direction,Wind SpeedMPH,Gust SpeedMPH,PrecipitationIn,Events,Conditions,WindDirDegrees,DateUTC
12:53 AM,42.1,34.0,73,30.15,8.0,SSW,5.8,-,N/A,,Mostly Cloudy,200,2012-11-09 05:53:00
1:53 AM,39.9,33.1,77,30.15,7.0,South,3.5,-,N/A,,Overcast,190,2012-11-09 06:53:00
2:37 AM,39.2,33.8,81,30.14,7.0,Calm,Calm,-,N/A,,Mostly Cloudy,0,2012-11-09 07:37:00
2:53 AM,37.9,32.0,79,30.16,7.0,SSE,3.5,-,N/A,,Scattered Clouds,160,2012-11-09 07:53:00
3:53 AM,37.9,32.0,79,30.15,6.0,Calm,Calm,-,N/A,,Haze,0,2012-11-09 08:53:00
4:53 AM,35.1,30.9,85,30.15,5.0,SSE,4.6,-,N/A,,Clear,150,2012-11-09 09:53:00
5:53 AM,34.0,30.9,89,30.14,5.0,SE,4.6,-,N/A,,Clear,140,2012-11-09 10:53:00
7:53 AM,36.0,32.0,86,30.15,3.0,SSE,5.8,-,N/A,,Clear,150,2012-11-09 12:53:00
8:53 AM,39.0,35.1,86,30.16,3.0,SSE,6.9,-,N/A,,Clear,150,2012-11-09 13:53:00
9:53 AM,44.1,36.0,73,30.14,5.0,SSE,9.2,-,N/A,,Haze,150,2012-11-09 14:53:00
10:53 AM,50.0,37.9,63,30.14,7.0,SE,9.2,-,N/A,,Clear,140,2012-11-09 15:53:00
11:53 AM,54.0,39.0,57,30.11,10.0,SE,11.5,-,N/A,,Clear,130,2012-11-09 16:53:00
12:53 PM,55.0,39.0,55,30.09,10.0,South,8.1,-,N/A,,Mostly Cloudy,170,2012-11-09 17:53:00
1:53 PM,55.9,39.0,53,30.08,10.0,SSE,3.5,-,N/A,,Overcast,150,2012-11-09 18:53:00
2:53 PM,55.9,39.0,53,30.06,10.0,SSE,3.5,-,N/A,,Overcast,160,2012-11-09 19:53:00
3:53 PM,57.0,39.9,53,30.06,10.0,SE,4.6,-,N/A,,Overcast,140,2012-11-09 20:53:00
4:53 PM,55.0,39.9,57,30.05,10.0,ESE,3.5,-,N/A,,Overcast,120,2012-11-09 21:53:00
5:53 PM,53.1,39.0,59,30.05,10.0,East,3.5,-,N/A,,Overcast,80,2012-11-09 22:53:00
6:53 PM,53.1,39.9,61,30.06,10.0,East,4.6,-,N/A,,Overcast,80,2012-11-09 23:53:00
7:53 PM,53.1,41.0,64,30.06,9.0,East,3.5,-,N/A,,Overcast,80,2012-11-10 00:53:00
8:53 PM,54.0,39.9,59,30.06,9.0,East,6.9,-,N/A,,Overcast,80,2012-11-10 01:53:00
9:53 PM,53.1,39.9,61,30.07,9.0,ENE,4.6,-,N/A,,Overcast,70,2012-11-10 02:53:00
10:53 PM,53.1,39.9,61,30.06,9.0,East,6.9,-,N/A,,Overcast,80,2012-11-10 03:53:00
11:53 PM,52.0,41.0,66,30.00,9.0,East,6.9,-,N/A,,Overcast,90,2012-11-10 04:53:00